sensor_id;sensor_type;location;lat;lon;timestamp;P1;durP1;ratioP1;P2;durP2;ratioP2
8893;SDS011;4483;48.622;9.230;2023-12-20T00:00:59;1.50;;;1.50;;
8893;SDS011;4483;48.622;9.230;2023-12-20T00:03:26;1.43;;;1.40;;
8893;SDS011;4483;48.622;9.230;2023-12-20T00:05:53;1.30;;;1.20;;
8893;SDS011;4483;48.622;9.230;2023-12-20T00:08:19;3.03;;;1.40;;
8893;SDS011;4483;48.622;9.230;2023-12-20T00:10:47;1.27;;;1.13;;
8893;SDS011;4483;48.622;9.230;2023-12-20T00:13:14;1.40;;;1.30;;
8893;SDS011;4483;48.622;9.230;2023-12-20T00:15:40;1.33;;;1.23;;
8893;SDS011;4483;48.622;9.230;2023-12-20T00:18:07;1.10;;;1.10;;
8893;SDS011;4483;48.622;9.230;2023-12-20T00:20:34;1.00;;;1.00;;
8893;SDS011;4483;48.622;9.230;2023-12-20T00:23:00;1.00;;;1.00;;
8893;SDS011;4483;48.622;9.230;2023-12-20T00:25:28;1.30;;;1.30;;
8893;SDS011;4483;48.622;9.230;2023-12-20T00:27:56;1.47;;;1.40;;
8893;SDS011;4483;48.622;9.230;2023-12-20T00:30:22;1.20;;;1.20;;
8893;SDS011;4483;48.622;9.230;2023-12-20T00:32:49;1.40;;;1.30;;
8893;SDS011;4483;48.622;9.230;2023-12-20T00:35:16;1.27;;;1.20;;
8893;SDS011;4483;48.622;9.230;2023-12-20T00:37:42;0.90;;;0.90;;
8893;SDS011;4483;48.622;9.230;2023-12-20T00:40:09;1.13;;;1.13;;
8893;SDS011;4483;48.622;9.230;2023-12-20T00:42:37;1.30;;;1.10;;
8893;SDS011;4483;48.622;9.230;2023-12-20T00:45:05;1.20;;;1.10;;
8893;SDS011;4483;48.622;9.230;2023-12-20T00:47:32;1.53;;;1.23;;
8893;SDS011;4483;48.622;9.230;2023-12-20T00:49:59;1.10;;;1.10;;
8893;SDS011;4483;48.622;9.230;2023-12-20T00:52:25;1.83;;;1.33;;
8893;SDS011;4483;48.622;9.230;2023-12-20T00:54:52;0.83;;;0.83;;
8893;SDS011;4483;48.622;9.230;2023-12-20T00:57:18;1.47;;;1.37;;
8893;SDS011;4483;48.622;9.230;2023-12-20T00:59:45;1.07;;;1.07;;
8893;SDS011;4483;48.622;9.230;2023-12-20T01:02:13;1.40;;;1.30;;
8893;SDS011;4483;48.622;9.230;2023-12-20T01:04:40;1.20;;;1.20;;
8893;SDS011;4483;48.622;9.230;2023-12-20T01:07:06;1.40;;;1.30;;
8893;SDS011;4483;48.622;9.230;2023-12-20T01:09:33;1.30;;;1.10;;
8893;SDS011;4483;48.622;9.230;2023-12-20T01:12:00;1.13;;;1.13;;
8893;SDS011;4483;48.622;9.230;2023-12-20T01:14:26;2.47;;;1.20;;
8893;SDS011;4483;48.622;9.230;2023-12-20T01:16:52;1.00;;;1.00;;
8893;SDS011;4483;48.622;9.230;2023-12-20T01:19:20;1.40;;;1.00;;
8893;SDS011;4483;48.622;9.230;2023-12-20T01:21:47;1.10;;;1.00;;
8893;SDS011;4483;48.622;9.230;2023-12-20T01:24:14;1.10;;;1.10;;
8893;SDS011;4483;48.622;9.230;2023-12-20T01:26:40;1.00;;;1.00;;
8893;SDS011;4483;48.622;9.230;2023-12-20T01:29:07;0.93;;;0.93;;
8893;SDS011;4483;48.622;9.230;2023-12-20T01:31:34;1.23;;;1.13;;
8893;SDS011;4483;48.622;9.230;2023-12-20T01:34:00;1.17;;;1.10;;
8893;SDS011;4483;48.622;9.230;2023-12-20T01:36:28;1.07;;;0.80;;
8893;SDS011;4483;48.622;9.230;2023-12-20T01:38:55;0.90;;;0.90;;
8893;SDS011;4483;48.622;9.230;2023-12-20T01:41:21;1.07;;;0.97;;
8893;SDS011;4483;48.622;9.230;2023-12-20T01:43:48;1.53;;;0.70;;
8893;SDS011;4483;48.622;9.230;2023-12-20T01:46:15;0.70;;;0.70;;
8893;SDS011;4483;48.622;9.230;2023-12-20T01:48:42;0.80;;;0.80;;
8893;SDS011;4483;48.622;9.230;2023-12-20T01:51:09;2.20;;;0.80;;
8893;SDS011;4483;48.622;9.230;2023-12-20T01:53:38;0.80;;;0.80;;
8893;SDS011;4483;48.622;9.230;2023-12-20T01:56:06;0.83;;;0.83;;
8893;SDS011;4483;48.622;9.230;2023-12-20T01:58:33;0.73;;;0.73;;
8893;SDS011;4483;48.622;9.230;2023-12-20T02:01:00;1.73;;;0.80;;
8893;SDS011;4483;48.622;9.230;2023-12-20T02:03:27;0.70;;;0.70;;
8893;SDS011;4483;48.622;9.230;2023-12-20T02:05:54;0.60;;;0.60;;
8893;SDS011;4483;48.622;9.230;2023-12-20T02:08:21;1.23;;;0.80;;
8893;SDS011;4483;48.622;9.230;2023-12-20T02:10:48;1.37;;;0.80;;
8893;SDS011;4483;48.622;9.230;2023-12-20T02:13:15;2.77;;;0.70;;
8893;SDS011;4483;48.622;9.230;2023-12-20T02:15:41;0.60;;;0.60;;
8893;SDS011;4483;48.622;9.230;2023-12-20T02:18:08;0.70;;;0.70;;
8893;SDS011;4483;48.622;9.230;2023-12-20T02:20:35;1.30;;;1.00;;
8893;SDS011;4483;48.622;9.230;2023-12-20T02:23:03;0.60;;;0.57;;
8893;SDS011;4483;48.622;9.230;2023-12-20T02:25:30;0.70;;;0.70;;
8893;SDS011;4483;48.622;9.230;2023-12-20T02:27:56;0.50;;;0.50;;
8893;SDS011;4483;48.622;9.230;2023-12-20T02:30:23;0.80;;;0.80;;
8893;SDS011;4483;48.622;9.230;2023-12-20T02:32:50;0.50;;;0.50;;
8893;SDS011;4483;48.622;9.230;2023-12-20T02:35:17;0.57;;;0.53;;
8893;SDS011;4483;48.622;9.230;2023-12-20T02:37:44;0.60;;;0.60;;
8893;SDS011;4483;48.622;9.230;2023-12-20T02:40:12;0.50;;;0.50;;
8893;SDS011;4483;48.622;9.230;2023-12-20T02:42:38;0.50;;;0.50;;
8893;SDS011;4483;48.622;9.230;2023-12-20T02:45:05;0.60;;;0.60;;
8893;SDS011;4483;48.622;9.230;2023-12-20T02:47:33;0.50;;;0.50;;
8893;SDS011;4483;48.622;9.230;2023-12-20T02:49:59;0.60;;;0.60;;
8893;SDS011;4483;48.622;9.230;2023-12-20T02:52:27;0.60;;;0.60;;
8893;SDS011;4483;48.622;9.230;2023-12-20T02:54:54;0.50;;;0.50;;
8893;SDS011;4483;48.622;9.230;2023-12-20T02:57:22;1.23;;;0.60;;
8893;SDS011;4483;48.622;9.230;2023-12-20T02:59:49;0.83;;;0.80;;
8893;SDS011;4483;48.622;9.230;2023-12-20T03:02:16;0.30;;;0.30;;
8893;SDS011;4483;48.622;9.230;2023-12-20T03:04:42;1.03;;;0.50;;
8893;SDS011;4483;48.622;9.230;2023-12-20T03:07:09;1.20;;;0.60;;
8893;SDS011;4483;48.622;9.230;2023-12-20T03:09:37;0.60;;;0.60;;
8893;SDS011;4483;48.622;9.230;2023-12-20T03:12:04;0.50;;;0.50;;
8893;SDS011;4483;48.622;9.230;2023-12-20T03:14:32;0.40;;;0.40;;
8893;SDS011;4483;48.622;9.230;2023-12-20T03:16:58;1.80;;;0.60;;
8893;SDS011;4483;48.622;9.230;2023-12-20T03:19:25;0.43;;;0.43;;
8893;SDS011;4483;48.622;9.230;2023-12-20T03:21:51;1.53;;;0.60;;
8893;SDS011;4483;48.622;9.230;2023-12-20T03:24:18;0.57;;;0.57;;
8893;SDS011;4483;48.622;9.230;2023-12-20T03:26:45;1.03;;;0.50;;
8893;SDS011;4483;48.622;9.230;2023-12-20T03:29:11;0.50;;;0.50;;
8893;SDS011;4483;48.622;9.230;2023-12-20T03:31:39;0.73;;;0.70;;
8893;SDS011;4483;48.622;9.230;2023-12-20T03:34:06;0.87;;;0.70;;
8893;SDS011;4483;48.622;9.230;2023-12-20T03:36:33;0.40;;;0.40;;
8893;SDS011;4483;48.622;9.230;2023-12-20T03:38:59;2.10;;;0.63;;
8893;SDS011;4483;48.622;9.230;2023-12-20T03:41:26;0.50;;;0.50;;
8893;SDS011;4483;48.622;9.230;2023-12-20T03:43:52;0.40;;;0.40;;
8893;SDS011;4483;48.622;9.230;2023-12-20T03:46:19;0.50;;;0.50;;
8893;SDS011;4483;48.622;9.230;2023-12-20T03:48:47;0.77;;;0.60;;
8893;SDS011;4483;48.622;9.230;2023-12-20T03:51:14;0.40;;;0.40;;
8893;SDS011;4483;48.622;9.230;2023-12-20T03:53:40;0.40;;;0.40;;
8893;SDS011;4483;48.622;9.230;2023-12-20T03:56:07;0.60;;;0.57;;
8893;SDS011;4483;48.622;9.230;2023-12-20T03:58:33;0.53;;;0.53;;
8893;SDS011;4483;48.622;9.230;2023-12-20T04:01:00;0.40;;;0.37;;
8893;SDS011;4483;48.622;9.230;2023-12-20T04:03:27;0.53;;;0.53;;
8893;SDS011;4483;48.622;9.230;2023-12-20T04:05:55;0.50;;;0.50;;
8893;SDS011;4483;48.622;9.230;2023-12-20T04:08:22;0.50;;;0.50;;
8893;SDS011;4483;48.622;9.230;2023-12-20T04:10:48;0.40;;;0.40;;
8893;SDS011;4483;48.622;9.230;2023-12-20T04:13:15;0.50;;;0.50;;
8893;SDS011;4483;48.622;9.230;2023-12-20T04:15:42;2.67;;;0.90;;
8893;SDS011;4483;48.622;9.230;2023-12-20T04:18:08;0.43;;;0.40;;
8893;SDS011;4483;48.622;9.230;2023-12-20T04:20:35;0.50;;;0.50;;
8893;SDS011;4483;48.622;9.230;2023-12-20T04:23:03;1.03;;;0.60;;
8893;SDS011;4483;48.622;9.230;2023-12-20T04:25:29;0.37;;;0.37;;
8893;SDS011;4483;48.622;9.230;2023-12-20T04:27:56;0.73;;;0.50;;
8893;SDS011;4483;48.622;9.230;2023-12-20T04:30:23;0.30;;;0.30;;
8893;SDS011;4483;48.622;9.230;2023-12-20T04:32:49;0.40;;;0.40;;
8893;SDS011;4483;48.622;9.230;2023-12-20T04:35:16;0.40;;;0.40;;
8893;SDS011;4483;48.622;9.230;2023-12-20T04:37:43;1.30;;;0.40;;
8893;SDS011;4483;48.622;9.230;2023-12-20T04:40:11;0.57;;;0.57;;
8893;SDS011;4483;48.622;9.230;2023-12-20T04:42:38;3.70;;;0.40;;
8893;SDS011;4483;48.622;9.230;2023-12-20T04:45:05;0.93;;;0.70;;
8893;SDS011;4483;48.622;9.230;2023-12-20T04:47:32;0.40;;;0.40;;
8893;SDS011;4483;48.622;9.230;2023-12-20T04:49:58;0.73;;;0.50;;
8893;SDS011;4483;48.622;9.230;2023-12-20T04:52:25;0.93;;;0.57;;
8893;SDS011;4483;48.622;9.230;2023-12-20T04:54:52;1.90;;;0.40;;
8893;SDS011;4483;48.622;9.230;2023-12-20T04:57:20;0.30;;;0.30;;
8893;SDS011;4483;48.622;9.230;2023-12-20T04:59:47;0.40;;;0.30;;
8893;SDS011;4483;48.622;9.230;2023-12-20T05:02:13;1.13;;;0.47;;
8893;SDS011;4483;48.622;9.230;2023-12-20T05:04:40;0.73;;;0.50;;
8893;SDS011;4483;48.622;9.230;2023-12-20T05:07:06;0.83;;;0.50;;
8893;SDS011;4483;48.622;9.230;2023-12-20T05:09:33;2.57;;;0.53;;
8893;SDS011;4483;48.622;9.230;2023-12-20T05:12:00;0.93;;;0.40;;
8893;SDS011;4483;48.622;9.230;2023-12-20T05:14:28;0.50;;;0.50;;
8893;SDS011;4483;48.622;9.230;2023-12-20T05:16:55;0.40;;;0.40;;
8893;SDS011;4483;48.622;9.230;2023-12-20T05:19:22;0.40;;;0.40;;
8893;SDS011;4483;48.622;9.230;2023-12-20T05:21:49;2.90;;;0.50;;
8893;SDS011;4483;48.622;9.230;2023-12-20T05:24:15;1.17;;;0.40;;
8893;SDS011;4483;48.622;9.230;2023-12-20T05:26:42;0.97;;;0.57;;
8893;SDS011;4483;48.622;9.230;2023-12-20T05:29:09;0.30;;;0.30;;
8893;SDS011;4483;48.622;9.230;2023-12-20T05:31:37;0.37;;;0.37;;
8893;SDS011;4483;48.622;9.230;2023-12-20T05:34:03;0.50;;;0.30;;
8893;SDS011;4483;48.622;9.230;2023-12-20T05:36:30;1.03;;;0.97;;
8893;SDS011;4483;48.622;9.230;2023-12-20T05:38:56;4.67;;;0.80;;
8893;SDS011;4483;48.622;9.230;2023-12-20T05:41:23;0.53;;;0.43;;
8893;SDS011;4483;48.622;9.230;2023-12-20T05:43:49;0.53;;;0.47;;
8893;SDS011;4483;48.622;9.230;2023-12-20T05:46:16;0.50;;;0.50;;
8893;SDS011;4483;48.622;9.230;2023-12-20T05:48:44;0.47;;;0.30;;
8893;SDS011;4483;48.622;9.230;2023-12-20T05:51:11;2.57;;;0.50;;
8893;SDS011;4483;48.622;9.230;2023-12-20T05:53:37;1.63;;;0.53;;
8893;SDS011;4483;48.622;9.230;2023-12-20T05:56:04;1.00;;;0.50;;
8893;SDS011;4483;48.622;9.230;2023-12-20T05:58:31;0.70;;;0.33;;
8893;SDS011;4483;48.622;9.230;2023-12-20T06:00:58;0.43;;;0.43;;
8893;SDS011;4483;48.622;9.230;2023-12-20T06:03:24;0.40;;;0.40;;
8893;SDS011;4483;48.622;9.230;2023-12-20T06:05:52;0.83;;;0.40;;
8893;SDS011;4483;48.622;9.230;2023-12-20T06:08:19;0.40;;;0.40;;
8893;SDS011;4483;48.622;9.230;2023-12-20T06:10:46;0.40;;;0.40;;
8893;SDS011;4483;48.622;9.230;2023-12-20T06:13:12;0.40;;;0.40;;
8893;SDS011;4483;48.622;9.230;2023-12-20T06:15:39;1.07;;;0.63;;
8893;SDS011;4483;48.622;9.230;2023-12-20T06:18:06;4.53;;;0.47;;
8893;SDS011;4483;48.622;9.230;2023-12-20T06:20:33;3.57;;;0.50;;
8893;SDS011;4483;48.622;9.230;2023-12-20T06:23:01;0.40;;;0.40;;
8893;SDS011;4483;48.622;9.230;2023-12-20T06:25:27;1.60;;;0.50;;
8893;SDS011;4483;48.622;9.230;2023-12-20T06:27:54;0.40;;;0.40;;
8893;SDS011;4483;48.622;9.230;2023-12-20T06:30:21;1.00;;;0.47;;
8893;SDS011;4483;48.622;9.230;2023-12-20T06:32:47;0.60;;;0.50;;
8893;SDS011;4483;48.622;9.230;2023-12-20T06:35:14;0.40;;;0.40;;
8893;SDS011;4483;48.622;9.230;2023-12-20T06:37:41;2.43;;;0.50;;
8893;SDS011;4483;48.622;9.230;2023-12-20T06:40:10;0.40;;;0.40;;
8893;SDS011;4483;48.622;9.230;2023-12-20T06:42:37;0.50;;;0.50;;
8893;SDS011;4483;48.622;9.230;2023-12-20T06:45:04;0.43;;;0.43;;
8893;SDS011;4483;48.622;9.230;2023-12-20T06:47:31;3.13;;;0.50;;
8893;SDS011;4483;48.622;9.230;2023-12-20T06:49:58;3.67;;;0.60;;
8893;SDS011;4483;48.622;9.230;2023-12-20T06:52:24;1.57;;;0.60;;
8893;SDS011;4483;48.622;9.230;2023-12-20T06:54:51;0.60;;;0.60;;
8893;SDS011;4483;48.622;9.230;2023-12-20T06:57:19;3.50;;;0.70;;
8893;SDS011;4483;48.622;9.230;2023-12-20T06:59:45;4.13;;;1.50;;
8893;SDS011;4483;48.622;9.230;2023-12-20T07:02:12;0.60;;;0.60;;
8893;SDS011;4483;48.622;9.230;2023-12-20T07:04:39;4.10;;;0.80;;
8893;SDS011;4483;48.622;9.230;2023-12-20T07:07:05;2.60;;;0.70;;
8893;SDS011;4483;48.622;9.230;2023-12-20T07:09:33;1.97;;;0.77;;
8893;SDS011;4483;48.622;9.230;2023-12-20T07:12:00;3.40;;;0.63;;
8893;SDS011;4483;48.622;9.230;2023-12-20T07:14:28;4.43;;;0.70;;
8893;SDS011;4483;48.622;9.230;2023-12-20T07:16:54;0.77;;;0.50;;
8893;SDS011;4483;48.622;9.230;2023-12-20T07:19:21;0.67;;;0.67;;
8893;SDS011;4483;48.622;9.230;2023-12-20T07:21:47;3.13;;;1.00;;
8893;SDS011;4483;48.622;9.230;2023-12-20T07:24:14;1.40;;;0.93;;
8893;SDS011;4483;48.622;9.230;2023-12-20T07:26:41;1.00;;;0.90;;
8893;SDS011;4483;48.622;9.230;2023-12-20T07:29:08;2.63;;;0.90;;
8893;SDS011;4483;48.622;9.230;2023-12-20T07:31:36;0.77;;;0.77;;
8893;SDS011;4483;48.622;9.230;2023-12-20T07:34:03;0.80;;;0.80;;
8893;SDS011;4483;48.622;9.230;2023-12-20T07:36:30;0.90;;;0.90;;
8893;SDS011;4483;48.622;9.230;2023-12-20T07:38:57;3.40;;;1.00;;
8893;SDS011;4483;48.622;9.230;2023-12-20T07:41:23;2.87;;;1.60;;
8893;SDS011;4483;48.622;9.230;2023-12-20T07:43:50;3.80;;;1.53;;
8893;SDS011;4483;48.622;9.230;2023-12-20T07:46:18;2.90;;;1.10;;
8893;SDS011;4483;48.622;9.230;2023-12-20T07:48:50;1.03;;;1.03;;
8893;SDS011;4483;48.622;9.230;2023-12-20T07:51:16;1.53;;;1.03;;
8893;SDS011;4483;48.622;9.230;2023-12-20T07:53:43;2.43;;;1.27;;
8893;SDS011;4483;48.622;9.230;2023-12-20T07:56:15;2.20;;;0.93;;
8893;SDS011;4483;48.622;9.230;2023-12-20T07:58:43;0.93;;;0.80;;
8893;SDS011;4483;48.622;9.230;2023-12-20T08:01:10;0.60;;;0.60;;
8893;SDS011;4483;48.622;9.230;2023-12-20T08:03:37;0.60;;;0.60;;
8893;SDS011;4483;48.622;9.230;2023-12-20T08:06:06;1.00;;;1.00;;
8893;SDS011;4483;48.622;9.230;2023-12-20T08:08:32;2.70;;;0.57;;
8893;SDS011;4483;48.622;9.230;2023-12-20T08:10:59;0.60;;;0.60;;
8893;SDS011;4483;48.622;9.230;2023-12-20T08:13:27;0.40;;;0.40;;
8893;SDS011;4483;48.622;9.230;2023-12-20T08:15:55;1.90;;;0.50;;
8893;SDS011;4483;48.622;9.230;2023-12-20T08:18:22;2.67;;;0.90;;
8893;SDS011;4483;48.622;9.230;2023-12-20T08:20:48;2.43;;;0.80;;
8893;SDS011;4483;48.622;9.230;2023-12-20T08:23:19;1.33;;;0.77;;
8893;SDS011;4483;48.622;9.230;2023-12-20T08:25:46;0.73;;;0.70;;
8893;SDS011;4483;48.622;9.230;2023-12-20T08:28:13;0.50;;;0.50;;
8893;SDS011;4483;48.622;9.230;2023-12-20T08:30:39;0.60;;;0.60;;
8893;SDS011;4483;48.622;9.230;2023-12-20T08:33:06;0.50;;;0.50;;
8893;SDS011;4483;48.622;9.230;2023-12-20T08:35:36;1.50;;;0.60;;
8893;SDS011;4483;48.622;9.230;2023-12-20T08:38:03;0.60;;;0.60;;
8893;SDS011;4483;48.622;9.230;2023-12-20T08:40:31;0.50;;;0.50;;
8893;SDS011;4483;48.622;9.230;2023-12-20T08:42:58;0.80;;;0.80;;
8893;SDS011;4483;48.622;9.230;2023-12-20T08:45:24;0.63;;;0.63;;
8893;SDS011;4483;48.622;9.230;2023-12-20T08:47:51;0.63;;;0.63;;
8893;SDS011;4483;48.622;9.230;2023-12-20T08:50:17;0.60;;;0.60;;
8893;SDS011;4483;48.622;9.230;2023-12-20T08:52:44;1.60;;;0.60;;
8893;SDS011;4483;48.622;9.230;2023-12-20T08:55:11;1.27;;;0.67;;
8893;SDS011;4483;48.622;9.230;2023-12-20T08:57:39;0.60;;;0.60;;
8893;SDS011;4483;48.622;9.230;2023-12-20T09:00:06;0.53;;;0.53;;
8893;SDS011;4483;48.622;9.230;2023-12-20T09:02:33;3.13;;;1.00;;
8893;SDS011;4483;48.622;9.230;2023-12-20T09:05:02;2.83;;;0.70;;
8893;SDS011;4483;48.622;9.230;2023-12-20T09:07:29;0.63;;;0.50;;
8893;SDS011;4483;48.622;9.230;2023-12-20T09:09:57;0.60;;;0.60;;
8893;SDS011;4483;48.622;9.230;2023-12-20T09:12:24;0.97;;;0.80;;
8893;SDS011;4483;48.622;9.230;2023-12-20T09:14:52;1.00;;;0.97;;
8893;SDS011;4483;48.622;9.230;2023-12-20T09:17:19;1.17;;;1.10;;
8893;SDS011;4483;48.622;9.230;2023-12-20T09:19:48;1.17;;;0.90;;
8893;SDS011;4483;48.622;9.230;2023-12-20T09:22:14;1.13;;;1.10;;
8893;SDS011;4483;48.622;9.230;2023-12-20T09:24:41;3.03;;;1.30;;
8893;SDS011;4483;48.622;9.230;2023-12-20T09:27:08;0.97;;;0.97;;
8893;SDS011;4483;48.622;9.230;2023-12-20T09:29:34;2.23;;;0.97;;
8893;SDS011;4483;48.622;9.230;2023-12-20T09:32:03;3.07;;;1.10;;
8893;SDS011;4483;48.622;9.230;2023-12-20T09:34:30;2.47;;;1.20;;
8893;SDS011;4483;48.622;9.230;2023-12-20T09:36:56;1.60;;;1.17;;
8893;SDS011;4483;48.622;9.230;2023-12-20T09:39:23;3.17;;;1.30;;
8893;SDS011;4483;48.622;9.230;2023-12-20T09:41:51;2.50;;;1.10;;
8893;SDS011;4483;48.622;9.230;2023-12-20T09:44:26;3.60;;;1.00;;
8893;SDS011;4483;48.622;9.230;2023-12-20T09:46:53;1.63;;;1.00;;
8893;SDS011;4483;48.622;9.230;2023-12-20T09:49:23;2.93;;;1.43;;
8893;SDS011;4483;48.622;9.230;2023-12-20T09:51:51;9.03;;;1.30;;
8893;SDS011;4483;48.622;9.230;2023-12-20T09:54:17;4.70;;;1.40;;
8893;SDS011;4483;48.622;9.230;2023-12-20T09:56:44;1.30;;;0.90;;
8893;SDS011;4483;48.622;9.230;2023-12-20T09:59:11;3.63;;;1.10;;
8893;SDS011;4483;48.622;9.230;2023-12-20T10:01:38;1.17;;;1.00;;
8893;SDS011;4483;48.622;9.230;2023-12-20T10:04:06;1.90;;;1.00;;
8893;SDS011;4483;48.622;9.230;2023-12-20T10:06:38;2.53;;;1.03;;
8893;SDS011;4483;48.622;9.230;2023-12-20T10:09:05;1.17;;;0.93;;
8893;SDS011;4483;48.622;9.230;2023-12-20T10:11:32;1.10;;;0.87;;
8893;SDS011;4483;48.622;9.230;2023-12-20T10:13:59;1.17;;;1.00;;
8893;SDS011;4483;48.622;9.230;2023-12-20T10:16:26;2.87;;;1.20;;
8893;SDS011;4483;48.622;9.230;2023-12-20T10:18:52;3.37;;;1.13;;
8893;SDS011;4483;48.622;9.230;2023-12-20T10:21:19;2.73;;;1.43;;
8893;SDS011;4483;48.622;9.230;2023-12-20T10:23:47;3.03;;;1.23;;
8893;SDS011;4483;48.622;9.230;2023-12-20T10:26:19;1.57;;;1.10;;
8893;SDS011;4483;48.622;9.230;2023-12-20T10:28:46;2.00;;;1.10;;
8893;SDS011;4483;48.622;9.230;2023-12-20T10:31:25;3.80;;;1.20;;
8893;SDS011;4483;48.622;9.230;2023-12-20T10:33:52;2.37;;;1.07;;
8893;SDS011;4483;48.622;9.230;2023-12-20T10:36:19;2.07;;;1.20;;
8893;SDS011;4483;48.622;9.230;2023-12-20T10:38:48;1.27;;;1.10;;
8893;SDS011;4483;48.622;9.230;2023-12-20T10:41:17;1.57;;;1.10;;
8893;SDS011;4483;48.622;9.230;2023-12-20T10:43:50;5.03;;;1.23;;
8893;SDS011;4483;48.622;9.230;2023-12-20T10:46:17;1.07;;;0.90;;
8893;SDS011;4483;48.622;9.230;2023-12-20T10:48:45;6.80;;;1.17;;
8893;SDS011;4483;48.622;9.230;2023-12-20T10:51:13;1.37;;;0.90;;
8893;SDS011;4483;48.622;9.230;2023-12-20T10:53:43;4.83;;;0.90;;
8893;SDS011;4483;48.622;9.230;2023-12-20T10:56:15;2.10;;;0.87;;
8893;SDS011;4483;48.622;9.230;2023-12-20T10:58:43;1.23;;;0.67;;
8893;SDS011;4483;48.622;9.230;2023-12-20T11:01:11;1.67;;;0.77;;
8893;SDS011;4483;48.622;9.230;2023-12-20T11:03:39;1.40;;;1.00;;
8893;SDS011;4483;48.622;9.230;2023-12-20T11:06:12;1.83;;;0.90;;
8893;SDS011;4483;48.622;9.230;2023-12-20T11:08:47;1.30;;;1.07;;
8893;SDS011;4483;48.622;9.230;2023-12-20T11:11:28;3.10;;;1.00;;
8893;SDS011;4483;48.622;9.230;2023-12-20T11:14:02;1.37;;;0.90;;
8893;SDS011;4483;48.622;9.230;2023-12-20T11:16:31;3.27;;;1.20;;
8893;SDS011;4483;48.622;9.230;2023-12-20T11:18:59;1.80;;;1.20;;
8893;SDS011;4483;48.622;9.230;2023-12-20T11:21:31;2.83;;;1.20;;
8893;SDS011;4483;48.622;9.230;2023-12-20T11:23:57;2.10;;;0.90;;
8893;SDS011;4483;48.622;9.230;2023-12-20T11:26:27;2.33;;;1.03;;
8893;SDS011;4483;48.622;9.230;2023-12-20T11:28:59;2.00;;;1.27;;
8893;SDS011;4483;48.622;9.230;2023-12-20T11:31:55;3.03;;;1.40;;
8893;SDS011;4483;48.622;9.230;2023-12-20T11:34:22;2.77;;;1.23;;
8893;SDS011;4483;48.622;9.230;2023-12-20T11:36:56;2.23;;;1.20;;
8893;SDS011;4483;48.622;9.230;2023-12-20T11:39:24;2.50;;;1.43;;
8893;SDS011;4483;48.622;9.230;2023-12-20T11:41:55;2.83;;;1.10;;
8893;SDS011;4483;48.622;9.230;2023-12-20T11:44:22;1.67;;;1.00;;
8893;SDS011;4483;48.622;9.230;2023-12-20T11:46:51;5.20;;;1.10;;
8893;SDS011;4483;48.622;9.230;2023-12-20T11:49:22;2.50;;;1.00;;
8893;SDS011;4483;48.622;9.230;2023-12-20T11:51:49;1.97;;;1.07;;
8893;SDS011;4483;48.622;9.230;2023-12-20T11:54:16;2.43;;;1.00;;
8893;SDS011;4483;48.622;9.230;2023-12-20T11:56:43;2.67;;;0.93;;
8893;SDS011;4483;48.622;9.230;2023-12-20T11:59:11;4.80;;;1.27;;
8893;SDS011;4483;48.622;9.230;2023-12-20T12:01:37;1.90;;;1.00;;
8893;SDS011;4483;48.622;9.230;2023-12-20T12:04:04;0.80;;;0.80;;
8893;SDS011;4483;48.622;9.230;2023-12-20T12:06:31;1.23;;;0.80;;
8893;SDS011;4483;48.622;9.230;2023-12-20T12:08:58;1.80;;;1.23;;
8893;SDS011;4483;48.622;9.230;2023-12-20T12:11:25;2.57;;;1.10;;
8893;SDS011;4483;48.622;9.230;2023-12-20T12:13:52;1.17;;;1.00;;
8893;SDS011;4483;48.622;9.230;2023-12-20T12:16:20;2.30;;;1.00;;
8893;SDS011;4483;48.622;9.230;2023-12-20T12:18:54;2.33;;;1.40;;
8893;SDS011;4483;48.622;9.230;2023-12-20T12:21:21;2.77;;;1.33;;
8893;SDS011;4483;48.622;9.230;2023-12-20T12:23:48;4.00;;;1.30;;
8893;SDS011;4483;48.622;9.230;2023-12-20T12:26:15;1.20;;;1.10;;
8893;SDS011;4483;48.622;9.230;2023-12-20T12:28:42;3.00;;;1.13;;
8893;SDS011;4483;48.622;9.230;2023-12-20T12:31:09;2.13;;;0.97;;
8893;SDS011;4483;48.622;9.230;2023-12-20T12:33:42;2.20;;;1.00;;
8893;SDS011;4483;48.622;9.230;2023-12-20T12:36:09;2.37;;;1.20;;
8893;SDS011;4483;48.622;9.230;2023-12-20T12:38:36;2.30;;;1.30;;
8893;SDS011;4483;48.622;9.230;2023-12-20T12:41:03;2.37;;;1.20;;
8893;SDS011;4483;48.622;9.230;2023-12-20T12:43:30;1.90;;;1.00;;
8893;SDS011;4483;48.622;9.230;2023-12-20T12:45:57;5.73;;;1.47;;
8893;SDS011;4483;48.622;9.230;2023-12-20T12:48:24;3.93;;;1.30;;
8893;SDS011;4483;48.622;9.230;2023-12-20T12:50:51;1.53;;;1.03;;
8893;SDS011;4483;48.622;9.230;2023-12-20T12:53:19;3.03;;;1.77;;
8893;SDS011;4483;48.622;9.230;2023-12-20T12:55:46;2.67;;;1.40;;
8893;SDS011;4483;48.622;9.230;2023-12-20T12:58:13;3.60;;;1.03;;
8893;SDS011;4483;48.622;9.230;2023-12-20T13:00:39;1.47;;;0.97;;
8893;SDS011;4483;48.622;9.230;2023-12-20T13:03:07;2.50;;;1.27;;
8893;SDS011;4483;48.622;9.230;2023-12-20T13:05:34;4.97;;;1.20;;
8893;SDS011;4483;48.622;9.230;2023-12-20T13:08:02;5.97;;;1.20;;
8893;SDS011;4483;48.622;9.230;2023-12-20T13:10:28;3.47;;;1.10;;
8893;SDS011;4483;48.622;9.230;2023-12-20T13:12:55;2.37;;;0.90;;
8893;SDS011;4483;48.622;9.230;2023-12-20T13:15:21;3.03;;;1.13;;
8893;SDS011;4483;48.622;9.230;2023-12-20T13:17:48;4.50;;;1.47;;
8893;SDS011;4483;48.622;9.230;2023-12-20T13:20:15;3.57;;;1.10;;
8893;SDS011;4483;48.622;9.230;2023-12-20T13:22:42;1.63;;;1.00;;
8893;SDS011;4483;48.622;9.230;2023-12-20T13:25:10;3.47;;;1.10;;
8893;SDS011;4483;48.622;9.230;2023-12-20T13:27:36;2.97;;;1.00;;
8893;SDS011;4483;48.622;9.230;2023-12-20T13:30:03;2.03;;;0.90;;
8893;SDS011;4483;48.622;9.230;2023-12-20T13:32:31;2.13;;;1.33;;
8893;SDS011;4483;48.622;9.230;2023-12-20T13:34:57;2.63;;;1.20;;
8893;SDS011;4483;48.622;9.230;2023-12-20T13:37:24;0.80;;;0.80;;
8893;SDS011;4483;48.622;9.230;2023-12-20T13:39:51;1.83;;;1.00;;
8893;SDS011;4483;48.622;9.230;2023-12-20T13:42:19;1.73;;;0.93;;
8893;SDS011;4483;48.622;9.230;2023-12-20T13:44:46;2.70;;;0.90;;
8893;SDS011;4483;48.622;9.230;2023-12-20T13:47:12;2.30;;;1.00;;
8893;SDS011;4483;48.622;9.230;2023-12-20T13:49:39;5.43;;;1.37;;
8893;SDS011;4483;48.622;9.230;2023-12-20T13:52:06;2.83;;;1.10;;
8893;SDS011;4483;48.622;9.230;2023-12-20T13:54:32;3.83;;;1.33;;
8893;SDS011;4483;48.622;9.230;2023-12-20T13:56:59;4.03;;;1.17;;
8893;SDS011;4483;48.622;9.230;2023-12-20T13:59:27;3.47;;;1.27;;
8893;SDS011;4483;48.622;9.230;2023-12-20T14:01:53;2.30;;;0.97;;
8893;SDS011;4483;48.622;9.230;2023-12-20T14:04:22;3.53;;;1.53;;
8893;SDS011;4483;48.622;9.230;2023-12-20T14:06:48;2.00;;;1.20;;
8893;SDS011;4483;48.622;9.230;2023-12-20T14:09:15;5.83;;;1.47;;
8893;SDS011;4483;48.622;9.230;2023-12-20T14:11:41;2.33;;;1.00;;
8893;SDS011;4483;48.622;9.230;2023-12-20T14:14:08;3.20;;;1.23;;
8893;SDS011;4483;48.622;9.230;2023-12-20T14:16:36;2.53;;;1.30;;
8893;SDS011;4483;48.622;9.230;2023-12-20T14:19:03;2.20;;;1.37;;
8893;SDS011;4483;48.622;9.230;2023-12-20T14:21:32;4.93;;;1.47;;
8893;SDS011;4483;48.622;9.230;2023-12-20T14:23:59;3.40;;;1.40;;
8893;SDS011;4483;48.622;9.230;2023-12-20T14:26:25;2.97;;;1.00;;
8893;SDS011;4483;48.622;9.230;2023-12-20T14:28:53;2.10;;;0.90;;
8893;SDS011;4483;48.622;9.230;2023-12-20T14:31:19;3.67;;;1.17;;
8893;SDS011;4483;48.622;9.230;2023-12-20T14:33:48;3.73;;;1.20;;
8893;SDS011;4483;48.622;9.230;2023-12-20T14:36:15;1.20;;;1.10;;
8893;SDS011;4483;48.622;9.230;2023-12-20T14:38:42;1.93;;;0.90;;
8893;SDS011;4483;48.622;9.230;2023-12-20T14:41:09;2.77;;;1.20;;
8893;SDS011;4483;48.622;9.230;2023-12-20T14:43:35;2.27;;;1.30;;
8893;SDS011;4483;48.622;9.230;2023-12-20T14:46:02;5.33;;;1.20;;
8893;SDS011;4483;48.622;9.230;2023-12-20T14:48:30;2.90;;;1.13;;
8893;SDS011;4483;48.622;9.230;2023-12-20T14:50:59;2.97;;;1.40;;
8893;SDS011;4483;48.622;9.230;2023-12-20T14:53:26;3.53;;;1.13;;
8893;SDS011;4483;48.622;9.230;2023-12-20T14:55:53;1.80;;;1.10;;
8893;SDS011;4483;48.622;9.230;2023-12-20T14:58:19;2.23;;;0.87;;
8893;SDS011;4483;48.622;9.230;2023-12-20T15:00:46;2.20;;;0.87;;
8893;SDS011;4483;48.622;9.230;2023-12-20T15:03:12;3.47;;;1.37;;
8893;SDS011;4483;48.622;9.230;2023-12-20T15:05:41;4.97;;;1.20;;
8893;SDS011;4483;48.622;9.230;2023-12-20T15:08:09;3.43;;;1.27;;
8893;SDS011;4483;48.622;9.230;2023-12-20T15:10:36;2.20;;;1.00;;
8893;SDS011;4483;48.622;9.230;2023-12-20T15:13:02;2.00;;;1.10;;
8893;SDS011;4483;48.622;9.230;2023-12-20T15:15:29;5.30;;;1.10;;